createdAt,value
2019-04-06T00:01:52.252Z,11.43
2019-04-06T00:04:24.071Z,10.50
2019-04-06T00:06:55.794Z,10.37
2019-04-06T00:09:27.783Z,8.93
2019-04-06T00:11:59.512Z,9.27
2019-04-06T00:14:31.125Z,10.83
2019-04-06T00:17:02.870Z,11.00
2019-04-06T00:19:34.462Z,10.03
2019-04-06T00:22:06.465Z,11.10
2019-04-06T00:24:38.278Z,10.83
2019-04-06T00:27:10.056Z,10.87
2019-04-06T00:29:41.889Z,9.83
2019-04-06T00:32:20.328Z,10.73
2019-04-06T00:34:52.200Z,10.80
2019-04-06T00:37:24.554Z,10.60
2019-04-06T00:39:56.142Z,6.97
2019-04-06T00:42:27.801Z,10.27
2019-04-06T00:44:59.489Z,9.70
2019-04-06T00:47:31.261Z,9.77
2019-04-06T00:50:03.050Z,10.40
2019-04-06T00:52:34.958Z,10.83
2019-04-06T00:55:06.526Z,8.90
2019-04-06T00:57:38.339Z,10.77
2019-04-06T01:00:10.096Z,10.47
2019-04-06T01:02:41.938Z,8.97
2019-04-06T01:05:13.767Z,8.57
2019-04-06T01:07:45.800Z,7.33
2019-04-06T01:10:17.428Z,11.13
2019-04-06T01:12:49.355Z,10.00
2019-04-06T01:15:20.926Z,10.47
2019-04-06T01:17:52.658Z,10.20
2019-04-06T01:20:24.503Z,12.00
2019-04-06T01:22:57.390Z,9.63
2019-04-06T01:25:29.170Z,10.00
2019-04-06T01:28:00.778Z,9.10
2019-04-06T01:30:32.512Z,10.53
2019-04-06T01:33:04.112Z,11.20
2019-04-06T01:35:35.952Z,10.93
2019-04-06T01:38:07.663Z,10.90
2019-04-06T01:40:39.393Z,9.90
2019-04-06T01:43:11.076Z,10.83
2019-04-06T01:45:42.890Z,10.70
2019-04-06T01:48:14.572Z,10.93
2019-04-06T01:50:46.638Z,11.50
2019-04-06T01:53:18.340Z,9.07
2019-04-06T01:55:50.088Z,11.20
2019-04-06T01:58:21.968Z,11.53
2019-04-06T02:01:10.485Z,11.87
2019-04-06T02:03:42.242Z,11.40
2019-04-06T02:06:14.034Z,11.20
2019-04-06T02:08:45.786Z,11.17
2019-04-06T02:11:17.404Z,11.57
2019-04-06T02:13:49.210Z,11.00
2019-04-06T02:16:20.986Z,11.40
2019-04-06T02:18:52.794Z,11.27
2019-04-06T02:21:24.524Z,11.63
2019-04-06T02:23:56.753Z,12.03
2019-04-06T02:26:30.686Z,9.93
2019-04-06T02:29:02.415Z,12.00
2019-04-06T02:31:53.145Z,11.57
2019-04-06T02:34:43.305Z,9.60
2019-04-06T02:37:42.137Z,9.17
2019-04-06T02:40:33.213Z,11.67
2019-04-06T02:43:26.975Z,11.03
2019-04-06T02:45:58.728Z,10.97
2019-04-06T02:48:30.338Z,11.17
2019-04-06T02:51:02.133Z,8.27
2019-04-06T02:53:33.729Z,10.83
2019-04-06T02:56:05.516Z,10.17
2019-04-06T02:58:37.424Z,10.37
2019-04-06T03:01:09.117Z,10.60
2019-04-06T03:03:40.899Z,11.30
2019-04-06T03:06:12.568Z,10.67
2019-04-06T03:08:44.399Z,10.90
2019-04-06T03:11:16.035Z,9.13
2019-04-06T03:13:47.763Z,11.10
2019-04-06T03:16:19.548Z,11.03
2019-04-06T03:18:51.396Z,10.77
2019-04-06T03:21:23.238Z,9.93
2019-04-06T03:23:55.315Z,10.07
2019-04-06T03:26:27.297Z,9.87
2019-04-06T03:28:58.909Z,10.73
2019-04-06T03:31:30.594Z,11.03
2019-04-06T03:34:02.432Z,9.87
2019-04-06T03:36:34.152Z,10.87
2019-04-06T03:39:06.633Z,10.87
2019-04-06T03:41:38.474Z,11.17
2019-04-06T03:44:10.035Z,11.53
2019-04-06T03:46:41.874Z,11.10
2019-04-06T03:49:13.688Z,9.50
2019-04-06T03:51:45.416Z,10.73
2019-04-06T03:54:17.213Z,9.60
2019-04-06T03:56:48.830Z,9.83
2019-04-06T03:59:20.620Z,10.50
2019-04-06T04:01:52.125Z,10.23
2019-04-06T04:04:24.193Z,11.67
2019-04-06T04:06:55.845Z,10.83
2019-04-06T04:09:27.447Z,11.70
2019-04-06T04:11:59.142Z,8.93
2019-04-06T04:14:31.162Z,11.10
2019-04-06T04:17:03.072Z,10.87
2019-04-06T04:19:36.111Z,10.80
2019-04-06T04:22:08.166Z,10.77
2019-04-06T04:24:39.847Z,10.83
2019-04-06T04:27:12.358Z,11.03
2019-04-06T04:29:44.234Z,11.07
2019-04-06T04:32:16.041Z,11.30
2019-04-06T04:34:47.779Z,11.17
2019-04-06T04:37:19.652Z,9.63
2019-04-06T04:39:51.722Z,10.30
2019-04-06T04:42:24.707Z,11.00
2019-04-06T04:44:56.620Z,11.87
2019-04-06T04:47:28.353Z,9.90
2019-04-06T04:50:00.115Z,11.17
2019-04-06T04:52:32.244Z,10.27
2019-04-06T04:55:04.220Z,11.67
2019-04-06T04:57:41.144Z,8.33
2019-04-06T05:00:10.582Z,11.60
2019-04-06T05:02:43.252Z,9.90
2019-04-06T05:05:16.330Z,11.43
2019-04-06T05:07:49.188Z,8.87
2019-04-06T05:10:21.029Z,10.43
2019-04-06T05:12:53.558Z,11.33
2019-04-06T05:15:55.968Z,10.27
2019-04-06T05:18:27.985Z,10.80
2019-04-06T05:20:59.708Z,12.20
2019-04-06T05:23:32.278Z,12.37
2019-04-06T05:26:04.730Z,12.97
2019-04-06T05:28:37.760Z,10.03
2019-04-06T05:31:11.403Z,12.33
2019-04-06T05:33:44.352Z,10.93
2019-04-06T05:36:18.092Z,10.40
2019-04-06T05:38:50.162Z,7.50
2019-04-06T05:41:22.116Z,10.23
2019-04-06T05:43:53.952Z,11.43
2019-04-06T05:46:25.703Z,8.87
2019-04-06T05:48:59.242Z,11.00
2019-04-06T05:51:31.160Z,11.80
2019-04-06T05:54:03.295Z,12.33
2019-04-06T05:56:35.393Z,10.47
2019-04-06T05:59:10.104Z,9.93
2019-04-06T06:01:43.067Z,11.10
2019-04-06T06:04:14.925Z,10.77
2019-04-06T06:06:46.668Z,10.30
2019-04-06T06:09:19.028Z,10.50
2019-04-06T06:11:51.097Z,10.63
2019-04-06T06:14:23.804Z,10.60
2019-04-06T06:16:55.903Z,11.27
2019-04-06T06:19:27.998Z,11.00
2019-04-06T06:21:59.640Z,11.37
2019-04-06T06:24:34.687Z,10.80
2019-04-06T06:27:06.275Z,11.33
2019-04-06T06:29:39.350Z,11.47
2019-04-06T06:32:11.210Z,10.63
2019-04-06T06:34:43.662Z,9.10
2019-04-06T06:37:16.572Z,10.93
2019-04-06T06:39:49.440Z,11.23
2019-04-06T06:42:21.835Z,10.93
2019-04-06T06:44:55.342Z,10.23
2019-04-06T06:47:29.101Z,10.03
2019-04-06T06:50:05.572Z,10.53
2019-04-06T06:52:37.615Z,10.50
2019-04-06T06:55:11.636Z,9.50
2019-04-06T06:57:43.523Z,10.80
2019-04-06T07:00:15.580Z,10.03
2019-04-06T07:02:47.241Z,11.07
2019-04-06T07:05:20.146Z,12.30
2019-04-06T07:07:52.886Z,8.63
2019-04-06T07:10:24.842Z,6.43
2019-04-06T07:12:56.627Z,8.33
2019-04-06T07:15:28.476Z,8.70
2019-04-06T07:18:00.199Z,8.87
2019-04-06T07:20:32.626Z,11.13
2019-04-06T07:23:04.543Z,10.03
2019-04-06T07:25:37.504Z,10.37
2019-04-06T07:28:11.459Z,10.77
2019-04-06T07:30:44.646Z,9.07
2019-04-06T07:33:17.951Z,9.53
2019-04-06T07:35:49.602Z,11.37
2019-04-06T07:38:21.755Z,10.73
2019-04-06T07:40:54.429Z,7.40
2019-04-06T07:43:26.262Z,12.30
2019-04-06T07:45:59.655Z,10.93
2019-04-06T07:48:31.669Z,7.13
2019-04-06T07:51:03.667Z,10.27
2019-04-06T07:53:35.381Z,9.83
2019-04-06T07:56:07.599Z,8.37
2019-04-06T07:58:48.395Z,10.20
2019-04-06T08:01:13.340Z,11.00
2019-04-06T08:03:47.409Z,10.57
2019-04-06T08:06:18.392Z,10.03
2019-04-06T08:08:50.689Z,8.83
2019-04-06T08:11:22.516Z,11.50
2019-04-06T08:13:54.189Z,10.77
2019-04-06T08:16:27.351Z,9.80
2019-04-06T08:19:00.379Z,6.43
2019-04-06T08:21:32.448Z,10.13
2019-04-06T08:24:04.907Z,8.50
2019-04-06T08:26:38.016Z,6.87
2019-04-06T08:29:10.672Z,6.73
2019-04-06T08:31:44.133Z,7.17
2019-04-06T08:34:16.077Z,7.67
2019-04-06T08:36:49.189Z,8.80
2019-04-06T08:39:25.417Z,6.97
2019-04-06T08:41:56.435Z,6.33
2019-04-06T08:44:28.431Z,7.97
2019-04-06T08:47:00.466Z,6.90
2019-04-06T08:49:35.031Z,9.03
2019-04-06T08:52:06.828Z,8.83
2019-04-06T08:54:38.906Z,8.73
2019-04-06T08:57:12.012Z,8.77
2019-04-06T08:59:44.842Z,7.80
2019-04-06T09:02:17.472Z,8.70
2019-04-06T09:04:49.635Z,7.87
2019-04-06T09:07:21.861Z,5.57
2019-04-06T09:09:54.271Z,8.73
2019-04-06T09:12:26.649Z,7.03
2019-04-06T09:14:58.401Z,8.83
2019-04-06T09:17:31.498Z,7.87
2019-04-06T09:20:06.346Z,6.77
2019-04-06T09:22:38.397Z,6.83
2019-04-06T09:25:10.727Z,8.07
2019-04-06T09:27:43.214Z,7.93
2019-04-06T09:30:15.019Z,7.70
2019-04-06T09:32:48.233Z,7.43
2019-04-06T09:35:20.700Z,7.53
2019-04-06T09:37:53.414Z,6.03
2019-04-06T09:40:27.666Z,6.60
2019-04-06T09:43:01.969Z,7.97
2019-04-06T09:45:56.425Z,5.60
2019-04-06T09:48:44.473Z,7.00
2019-04-06T09:51:28.214Z,7.73
2019-04-06T09:54:13.100Z,6.57
2019-04-06T09:57:17.654Z,7.40
2019-04-06T10:00:01.444Z,7.17
2019-04-06T10:02:57.178Z,7.47
2019-04-06T10:05:41.803Z,8.10
2019-04-06T10:08:27.825Z,7.53
2019-04-06T10:11:20.918Z,7.00
2019-04-06T10:14:24.725Z,8.10
2019-04-06T10:17:18.701Z,7.70
2019-04-06T10:20:11.261Z,7.73
2019-04-06T10:23:01.806Z,7.07
2019-04-06T10:25:53.643Z,8.30
2019-04-06T10:28:44.639Z,8.23
2019-04-06T10:31:52.569Z,6.83
2019-04-06T10:34:44.694Z,9.50
2019-04-06T10:37:43.882Z,11.43
2019-04-06T10:40:28.653Z,7.90
2019-04-06T10:43:19.656Z,7.23
2019-04-06T10:46:08.766Z,8.40
2019-04-06T10:48:56.705Z,8.10
2019-04-06T10:51:44.067Z,9.23
2019-04-06T10:54:45.549Z,7.83
2019-04-06T10:57:36.129Z,6.47
2019-04-06T11:00:29.907Z,8.10
2019-04-06T11:03:25.957Z,7.80
2019-04-06T11:06:13.521Z,6.30
2019-04-06T11:08:56.380Z,6.40
2019-04-06T11:11:52.209Z,4.73
2019-04-06T11:14:51.385Z,8.13
2019-04-06T11:17:45.484Z,7.87
2019-04-06T11:20:36.393Z,10.17
2019-04-06T11:23:19.958Z,7.80
2019-04-06T11:26:15.964Z,8.43
2019-04-06T11:29:13.625Z,6.23
2019-04-06T11:32:02.888Z,9.73
2019-04-06T11:34:55.651Z,6.93
2019-04-06T11:37:47.100Z,5.60
2019-04-06T11:40:33.931Z,6.97
2019-04-06T11:43:28.557Z,8.40
2019-04-06T11:46:27.172Z,5.13
2019-04-06T11:49:27.615Z,7.57
2019-04-06T11:52:36.444Z,7.70
2019-04-06T11:55:27.304Z,7.87
2019-04-06T11:58:21.793Z,10.77
2019-04-06T12:01:18.268Z,6.80
2019-04-06T12:04:04.821Z,7.47
2019-04-06T12:07:00.462Z,6.60
2019-04-06T12:09:42.727Z,8.67
2019-04-06T12:12:28.319Z,7.73
2019-04-06T12:15:27.383Z,6.47
2019-04-06T12:18:16.985Z,7.10
2019-04-06T12:21:03.013Z,4.73
2019-04-06T12:23:54.864Z,5.37
2019-04-06T12:27:04.432Z,7.40
2019-04-06T12:29:59.746Z,6.93
2019-04-06T12:32:51.002Z,7.33
2019-04-06T12:35:49.166Z,7.43
2019-04-06T12:38:37.193Z,6.20
2019-04-06T12:41:22.074Z,6.73
2019-04-06T12:44:14.548Z,7.03
2019-04-06T12:47:06.667Z,7.50
2019-04-06T12:50:00.591Z,7.90
2019-04-06T12:53:02.592Z,5.67
2019-04-06T12:55:48.229Z,6.10
2019-04-06T12:58:27.668Z,7.60
2019-04-06T13:01:21.074Z,5.50
2019-04-06T13:04:16.328Z,8.00
2019-04-06T13:07:14.010Z,7.07
2019-04-06T13:10:07.558Z,7.40
2019-04-06T13:13:03.475Z,7.03
2019-04-06T13:15:53.731Z,8.33
2019-04-06T13:18:50.789Z,9.10
2019-04-06T13:21:46.249Z,8.00
2019-04-06T13:24:47.945Z,7.87
2019-04-06T13:27:40.994Z,8.50
2019-04-06T13:30:39.524Z,7.73
2019-04-06T13:33:24.062Z,6.83
2019-04-06T13:36:19.595Z,7.23
2019-04-06T13:39:02.589Z,6.53
2019-04-06T13:41:52.274Z,7.27
2019-04-06T13:44:43.600Z,7.70
2019-04-06T13:47:56.149Z,7.60
2019-04-06T13:50:44.619Z,8.20
2019-04-06T13:53:35.877Z,7.73
2019-04-06T13:56:29.626Z,7.33
2019-04-06T13:59:22.969Z,7.43
2019-04-06T14:02:15.828Z,8.63
2019-04-06T14:05:15.893Z,7.30
2019-04-06T14:08:01.143Z,7.27
2019-04-06T14:10:46.458Z,8.13
2019-04-06T14:13:29.157Z,8.00
2019-04-06T14:16:23.521Z,6.60
2019-04-06T14:19:09.914Z,4.87
2019-04-06T14:22:03.013Z,6.13
2019-04-06T14:24:44.262Z,6.67
2019-04-06T14:27:24.672Z,7.83
2019-04-06T14:30:17.718Z,5.03
2019-04-06T14:33:11.475Z,4.63
2019-04-06T14:36:11.911Z,8.43
2019-04-06T14:39:03.071Z,7.70
2019-04-06T14:41:59.759Z,6.73
2019-04-06T14:44:55.886Z,7.70
2019-04-06T14:47:50.420Z,8.83
2019-04-06T14:50:41.746Z,5.87
2019-04-06T14:53:36.272Z,7.13
2019-04-06T14:56:18.941Z,9.37
2019-04-06T14:59:03.701Z,6.60
2019-04-06T15:01:58.188Z,8.13
2019-04-06T15:04:49.543Z,7.50
2019-04-06T15:07:42.550Z,8.70
2019-04-06T15:10:38.687Z,5.97
2019-04-06T15:13:21.259Z,6.57
2019-04-06T15:16:16.504Z,8.33
2019-04-06T15:19:13.141Z,9.50
2019-04-06T15:22:02.253Z,8.60
2019-04-06T15:24:47.266Z,9.50
2019-04-06T15:27:39.726Z,10.23
2019-04-06T15:30:38.678Z,9.07
2019-04-06T15:33:29.851Z,10.53
2019-04-06T15:36:35.409Z,8.77
2019-04-06T15:39:35.470Z,10.23
2019-04-06T15:42:35.706Z,9.67
2019-04-06T15:45:21.715Z,7.77
2019-04-06T15:48:10.113Z,9.97
2019-04-06T15:50:58.455Z,9.93
2019-04-06T15:53:51.098Z,7.80
2019-04-06T15:56:44.633Z,8.30
2019-04-06T15:59:46.763Z,8.13
2019-04-06T16:02:40.231Z,9.13
2019-04-06T16:05:33.118Z,9.63
2019-04-06T16:08:26.244Z,10.37
2019-04-06T16:11:27.835Z,9.03
2019-04-06T16:14:29.776Z,8.13
2019-04-06T16:17:21.285Z,10.03
2019-04-06T16:20:15.671Z,9.70
2019-04-06T16:23:10.840Z,9.20
2019-04-06T16:26:19.236Z,8.70
2019-04-06T16:29:10.027Z,8.97
2019-04-06T16:31:51.695Z,9.07
2019-04-06T16:34:37.149Z,8.40
2019-04-06T16:37:36.274Z,8.00
2019-04-06T16:40:41.236Z,8.73
2019-04-06T16:43:24.826Z,6.90
2019-04-06T16:46:16.152Z,7.30
2019-04-06T16:49:01.125Z,7.13
2019-04-06T16:51:44.161Z,7.97
2019-04-06T16:54:41.188Z,7.00
2019-04-06T16:57:27.582Z,8.93
2019-04-06T17:00:24.643Z,8.63
2019-04-06T17:03:24.860Z,7.87
2019-04-06T17:06:20.394Z,9.57
2019-04-06T17:09:03.618Z,8.67
2019-04-06T17:11:56.579Z,7.57
2019-04-06T17:14:49.457Z,7.40
2019-04-06T17:17:43.071Z,9.20
2019-04-06T17:20:42.396Z,10.23
2019-04-06T17:23:35.190Z,8.40
2019-04-06T17:26:37.182Z,9.33
2019-04-06T17:29:26.335Z,9.80
2019-04-06T17:32:12.546Z,9.43
2019-04-06T17:35:11.892Z,10.23
2019-04-06T17:37:53.405Z,9.30
2019-04-06T17:40:55.896Z,11.03
2019-04-06T17:43:56.054Z,8.53
2019-04-06T17:46:54.433Z,10.03
2019-04-06T17:49:45.646Z,10.80
2019-04-06T17:52:34.861Z,9.90
2019-04-06T17:55:24.719Z,11.07
2019-04-06T17:58:17.879Z,10.83
2019-04-06T18:01:02.252Z,11.50
2019-04-06T18:04:05.084Z,11.73
2019-04-06T18:06:54.235Z,13.00
2019-04-06T18:09:47.111Z,10.73
2019-04-06T18:12:25.515Z,11.27
2019-04-06T18:14:57.812Z,11.70
2019-04-06T18:17:29.969Z,11.63
2019-04-06T18:20:03.749Z,10.40
2019-04-06T18:22:35.532Z,11.17
2019-04-06T18:25:07.726Z,10.70
2019-04-06T18:27:39.957Z,12.23
2019-04-06T18:30:11.851Z,11.70
2019-04-06T18:32:59.967Z,11.07
2019-04-06T18:35:25.868Z,12.43
2019-04-06T18:38:23.216Z,11.47
2019-04-06T18:40:56.148Z,12.37
2019-04-06T18:43:28.259Z,12.40
2019-04-06T18:46:01.282Z,13.20
2019-04-06T18:48:33.884Z,13.80
2019-04-06T18:51:06.532Z,13.40
2019-04-06T18:53:38.887Z,13.67
2019-04-06T18:56:11.017Z,14.73
2019-04-06T18:58:45.234Z,13.37
2019-04-06T19:01:18.228Z,14.17
2019-04-06T19:03:51.784Z,14.43
2019-04-06T19:06:24.282Z,14.20
2019-04-06T19:08:57.011Z,14.63
2019-04-06T19:11:28.992Z,14.13
2019-04-06T19:14:01.223Z,14.63
2019-04-06T19:16:33.276Z,14.10
2019-04-06T19:19:05.696Z,13.47
2019-04-06T19:21:38.722Z,14.73
2019-04-06T19:24:11.564Z,13.80
2019-04-06T19:26:43.626Z,14.00
2019-04-06T19:29:16.063Z,14.20
2019-04-06T19:31:48.616Z,15.17
2019-04-06T19:34:20.683Z,14.63
2019-04-06T19:36:52.495Z,14.33
2019-04-06T19:39:25.198Z,14.13
2019-04-06T19:41:58.702Z,14.20
2019-04-06T19:44:30.308Z,14.40
2019-04-06T19:47:02.090Z,14.60
2019-04-06T19:49:34.142Z,16.03
2019-04-06T19:52:06.042Z,15.60
2019-04-06T19:54:39.577Z,16.17
2019-04-06T19:57:13.113Z,16.23
2019-04-06T19:59:45.750Z,16.67
2019-04-06T20:02:17.830Z,17.53
2019-04-06T20:04:49.982Z,16.40
2019-04-06T20:07:22.897Z,18.53
2019-04-06T20:09:55.658Z,20.03
2019-04-06T20:12:27.789Z,19.37
2019-04-06T20:15:01.838Z,19.73
2019-04-06T20:17:34.760Z,16.70
2019-04-06T20:20:09.065Z,16.97
2019-04-06T20:22:42.471Z,16.43
2019-04-06T20:25:15.169Z,18.50
2019-04-06T20:27:47.455Z,20.63
2019-04-06T20:30:20.664Z,19.43
2019-04-06T20:32:54.230Z,17.60
2019-04-06T20:35:26.016Z,14.60
2019-04-06T20:37:58.123Z,19.33
2019-04-06T20:40:31.318Z,14.70
2019-04-06T20:43:03.894Z,16.63
2019-04-06T20:45:37.404Z,17.30
2019-04-06T20:48:09.434Z,14.30
2019-04-06T20:50:41.377Z,15.73
2019-04-06T20:53:14.663Z,13.27
2019-04-06T20:55:46.888Z,15.73
2019-04-06T20:58:18.652Z,14.87
2019-04-06T21:00:50.615Z,16.97
2019-04-06T21:03:24.323Z,17.23
2019-04-06T21:05:57.783Z,16.83
2019-04-06T21:08:29.693Z,16.60
2019-04-06T21:11:01.780Z,17.30
2019-04-06T21:13:35.824Z,16.00
2019-04-06T21:16:07.569Z,16.37
2019-04-06T21:18:39.137Z,20.57
2019-04-06T21:21:13.118Z,17.57
2019-04-06T21:23:48.417Z,18.73
2019-04-06T21:26:20.345Z,17.90
2019-04-06T21:28:52.212Z,18.83
2019-04-06T21:31:24.283Z,18.33
2019-04-06T21:34:09.320Z,18.67
2019-04-06T21:36:32.330Z,20.57
2019-04-06T21:39:06.496Z,18.10
2019-04-06T21:41:38.476Z,18.23
2019-04-06T21:44:11.156Z,19.57
2019-04-06T21:46:43.458Z,20.03
2019-04-06T21:49:16.850Z,20.03
2019-04-06T21:51:50.282Z,19.20
2019-04-06T21:54:24.005Z,16.97
2019-04-06T21:56:55.752Z,19.93
2019-04-06T21:59:27.654Z,18.37
2019-04-06T22:01:59.537Z,19.37
2019-04-06T22:04:33.721Z,19.63
2019-04-06T22:07:05.558Z,20.03
2019-04-06T22:09:37.533Z,19.83
2019-04-06T22:12:10.122Z,19.83
2019-04-06T22:14:42.135Z,21.93
2019-04-06T22:17:14.377Z,20.20
2019-04-06T22:19:46.337Z,18.87
2019-04-06T22:22:18.878Z,18.57
2019-04-06T22:24:51.816Z,16.73
2019-04-06T22:27:23.797Z,20.20
2019-04-06T22:29:55.700Z,20.40
2019-04-06T22:32:27.488Z,20.23
2019-04-06T22:34:59.330Z,20.07
2019-04-06T22:37:31.453Z,19.90
2019-04-06T22:40:03.785Z,20.27
2019-04-06T22:42:36.606Z,20.63
2019-04-06T22:45:10.648Z,20.87
2019-04-06T22:47:43.032Z,19.67
2019-04-06T22:50:15.351Z,18.47
2019-04-06T22:52:47.757Z,19.47
2019-04-06T22:55:19.688Z,20.30
2019-04-06T22:57:51.982Z,19.43
2019-04-06T23:00:34.817Z,19.30
2019-04-06T23:03:26.500Z,20.10
2019-04-06T23:06:06.018Z,19.33
2019-04-06T23:08:38.286Z,19.13
2019-04-06T23:11:10.241Z,17.67
2019-04-06T23:13:42.100Z,17.80
2019-04-06T23:16:14.128Z,18.73
2019-04-06T23:18:45.954Z,19.30
2019-04-06T23:21:17.803Z,19.37
2019-04-06T23:23:50.201Z,18.10
2019-04-06T23:26:22.206Z,18.47
2019-04-06T23:28:55.264Z,17.20
2019-04-06T23:31:28.295Z,18.83
2019-04-06T23:34:00.207Z,16.87
2019-04-06T23:36:32.080Z,16.97
2019-04-06T23:39:05.752Z,15.60
2019-04-06T23:41:37.852Z,16.07
2019-04-06T23:44:09.864Z,16.97
2019-04-06T23:46:41.849Z,14.23
2019-04-06T23:49:13.774Z,16.20
2019-04-06T23:51:45.544Z,18.23
2019-04-06T23:54:17.623Z,17.93
2019-04-06T23:56:49.687Z,18.13
2019-04-06T23:59:22.170Z,17.07
